createdAt,value
2023-04-22T00:00:26.978Z,79.931641
2023-04-22T00:01:36.656Z,80.175781
2023-04-22T00:02:45.574Z,80.480957
2023-04-22T00:03:54.320Z,80.993652
2023-04-22T00:05:03.941Z,81.298828
2023-04-22T00:06:12.592Z,81.298828
2023-04-22T00:07:20.310Z,81.402588
2023-04-22T00:08:30.140Z,81.506348
2023-04-22T00:09:39.181Z,81.604004
2023-04-22T00:10:47.574Z,81.707764
2023-04-22T00:11:57.248Z,81.90918
2023-04-22T00:13:05.970Z,81.811523
2023-04-22T00:14:15.626Z,81.951904
2023-04-22T00:15:23.286Z,81.646729
2023-04-22T00:16:31.107Z,81.237793
2023-04-22T00:17:40.753Z,81.542969
2023-04-22T00:18:49.511Z,81.744385
2023-04-22T00:19:58.235Z,81.646729
2023-04-22T00:21:06.871Z,82.092285
2023-04-22T00:22:15.598Z,82.702637
2023-04-22T00:23:25.358Z,82.910156
2023-04-22T00:24:33.098Z,83.319092
2023-04-22T00:25:42.876Z,83.624268
2023-04-22T00:26:52.499Z,83.319092
2023-04-22T00:28:02.239Z,83.111572
2023-04-22T00:29:10.960Z,82.806396
2023-04-22T00:30:20.642Z,82.806396
2023-04-22T00:31:30.382Z,83.013916
2023-04-22T00:32:40.060Z,83.319092
2023-04-22T00:33:48.736Z,83.215332
2023-04-22T00:34:56.422Z,83.111572
2023-04-22T00:36:06.108Z,82.910156
2023-04-22T00:37:14.785Z,83.111572
2023-04-22T00:38:23.522Z,83.319092
2023-04-22T00:39:33.180Z,83.111572
2023-04-22T00:40:41.885Z,82.702637
2023-04-22T00:41:51.615Z,83.050537
2023-04-22T00:43:00.510Z,83.251953
2023-04-22T00:44:08.156Z,84.112549
2023-04-22T00:45:16.893Z,84.216309
2023-04-22T00:46:26.638Z,84.381104
2023-04-22T00:47:36.371Z,84.069824
2023-04-22T00:48:45.078Z,83.355713
2023-04-22T00:49:53.762Z,83.459473
2023-04-22T00:51:03.444Z,83.355713
2023-04-22T00:52:11.112Z,82.946777
2023-04-22T00:53:19.840Z,82.843018
2023-04-22T00:54:30.506Z,83.355713
2023-04-22T00:55:39.193Z,83.563232
2023-04-22T00:56:47.942Z,83.868408
2023-04-22T00:57:57.667Z,83.972168
2023-04-22T00:59:06.316Z,83.764648
2023-04-22T01:00:16.041Z,84.069824
2023-04-22T01:01:24.798Z,84.069824
2023-04-22T01:02:33.506Z,83.764648
2023-04-22T01:03:43.228Z,83.459473
2023-04-22T01:04:51.777Z,83.703613
2023-04-22T01:06:00.477Z,84.008789
2023-04-22T01:07:09.139Z,84.216309
2023-04-22T01:08:43.943Z,84.112549
2023-04-22T01:09:53.594Z,83.703613
2023-04-22T01:11:01.242Z,83.905029
2023-04-22T01:12:09.886Z,84.25293
2023-04-22T01:13:19.606Z,84.313965
2023-04-22T01:14:28.241Z,84.216309
2023-04-22T01:15:37.922Z,84.356689
2023-04-22T01:16:47.609Z,84.313965
2023-04-22T01:17:56.341Z,84.661865
2023-04-22T01:19:04.933Z,84.765625
2023-04-22T01:20:13.593Z,84.625244
2023-04-22T01:21:22.259Z,84.869385
2023-04-22T01:22:31.909Z,84.765625
2023-04-22T01:23:39.583Z,84.765625
2023-04-22T01:24:48.253Z,84.967041
2023-04-22T01:25:57.903Z,84.967041
2023-04-22T01:27:07.548Z,85.070801
2023-04-22T01:28:16.214Z,84.967041
2023-04-22T01:29:25.886Z,85.070801
2023-04-22T01:30:34.541Z,85.070801
2023-04-22T01:31:44.216Z,85.070801
2023-04-22T01:32:52.913Z,85.070801
2023-04-22T01:34:02.520Z,84.765625
2023-04-22T01:35:12.158Z,84.661865
2023-04-22T01:36:20.812Z,84.661865
2023-04-22T01:37:30.452Z,84.765625
2023-04-22T01:38:40.121Z,84.967041
2023-04-22T01:39:47.774Z,84.967041
2023-04-22T01:40:56.411Z,84.967041
2023-04-22T01:42:06.061Z,84.869385
2023-04-22T01:43:14.741Z,84.967041
2023-04-22T01:44:23.384Z,85.38208
2023-04-22T01:45:32.072Z,85.070801
2023-04-22T01:46:41.679Z,84.967041
2023-04-22T01:47:51.396Z,84.869385
2023-04-22T01:49:00.042Z,85.113525
2023-04-22T01:50:08.696Z,85.418701
2023-04-22T01:51:18.348Z,85.418701
2023-04-22T01:52:26.983Z,85.723877
2023-04-22T01:53:36.652Z,85.626221
2023-04-22T01:54:45.286Z,85.522461
2023-04-22T01:55:53.917Z,85.38208
2023-04-22T01:57:03.569Z,85.38208
2023-04-22T01:58:12.214Z,85.070801
2023-04-22T01:59:21.913Z,85.070801
2023-04-22T02:00:31.578Z,85.217285
2023-04-22T02:01:41.297Z,85.418701
2023-04-22T02:02:49.920Z,85.626221
2023-04-22T02:03:59.549Z,85.522461
2023-04-22T02:05:08.300Z,85.522461
2023-04-22T02:06:17.875Z,85.522461
2023-04-22T02:07:26.531Z,85.522461
2023-04-22T02:08:34.177Z,85.418701
2023-04-22T02:09:43.832Z,85.626221
2023-04-22T02:10:53.480Z,85.418701
2023-04-22T02:12:03.127Z,85.418701
2023-04-22T02:13:11.771Z,85.418701
2023-04-22T02:14:20.479Z,85.418701
2023-04-22T02:15:30.160Z,85.217285
2023-04-22T02:16:39.832Z,85.217285
2023-04-22T02:17:48.514Z,85.009766
2023-04-22T02:18:58.331Z,85.662842
2023-04-22T02:20:06.980Z,85.974121
2023-04-22T02:21:16.602Z,86.071777
2023-04-22T02:22:25.235Z,85.931396
2023-04-22T02:23:33.907Z,85.827637
2023-04-22T02:24:43.570Z,85.931396
2023-04-22T02:25:51.213Z,85.626221
2023-04-22T02:26:58.859Z,85.974121
2023-04-22T02:28:08.509Z,86.071777
2023-04-22T02:29:18.211Z,86.175537
2023-04-22T02:30:25.851Z,86.279297
2023-04-22T02:31:35.524Z,86.688232
2023-04-22T02:32:44.167Z,87.036133
2023-04-22T02:33:53.851Z,87.243652
2023-04-22T02:35:02.519Z,87.036133
2023-04-22T02:36:11.175Z,86.895752
2023-04-22T02:37:20.845Z,86.688232
2023-04-22T02:38:30.494Z,86.480713
2023-04-22T02:39:38.535Z,86.627197
2023-04-22T02:40:47.813Z,86.791992
2023-04-22T02:41:57.548Z,86.627197
2023-04-22T02:43:07.161Z,86.828613
2023-04-22T02:44:16.831Z,87.176514
2023-04-22T02:45:24.479Z,87.487793
2023-04-22T02:46:34.174Z,87.695312
2023-04-22T02:47:42.790Z,87.896729
2023-04-22T02:48:52.487Z,87.445068
2023-04-22T02:50:02.158Z,87.139893
2023-04-22T02:51:11.794Z,87.139893
2023-04-22T02:52:21.452Z,87.036133
2023-04-22T02:53:30.084Z,87.243652
2023-04-22T02:54:39.789Z,87.280273
2023-04-22T02:55:49.474Z,87.036133
2023-04-22T02:56:59.110Z,87.280273
2023-04-22T02:58:07.780Z,87.487793
2023-04-22T02:59:16.466Z,87.695312
2023-04-22T03:00:26.114Z,87.792969
2023-04-22T03:01:35.774Z,87.695312
2023-04-22T03:02:44.549Z,87.695312
2023-04-22T03:03:53.333Z,87.695312
2023-04-22T03:05:02.783Z,87.487793
2023-04-22T03:06:11.479Z,87.384033
2023-04-22T03:07:20.106Z,87.384033
2023-04-22T03:08:29.739Z,87.078857
2023-04-22T03:09:38.559Z,87.078857
2023-04-22T03:10:48.088Z,87.078857
2023-04-22T03:11:55.733Z,86.975098
2023-04-22T03:13:04.396Z,86.730957
2023-04-22T03:14:14.045Z,86.114502
2023-04-22T03:15:23.696Z,86.114502
2023-04-22T03:16:32.373Z,86.218262
2023-04-22T03:17:41.130Z,86.010742
2023-04-22T03:18:49.746Z,86.010742
2023-04-22T03:19:59.455Z,86.114502
2023-04-22T03:21:07.089Z,85.906982
2023-04-22T03:22:16.769Z,85.906982
2023-04-22T03:23:26.387Z,85.845947
2023-04-22T03:24:36.042Z,85.845947
2023-04-22T03:25:43.701Z,86.053467
2023-04-22T03:26:52.368Z,86.053467
2023-04-22T03:28:01.042Z,85.949707
2023-04-22T03:29:10.689Z,86.151123
2023-04-22T03:30:18.391Z,86.254883
2023-04-22T03:31:26.068Z,86.053467
2023-04-22T03:32:35.713Z,86.090088
2023-04-22T03:33:44.327Z,86.090088
2023-04-22T03:34:53.000Z,85.986328
2023-04-22T03:36:01.665Z,86.090088
2023-04-22T03:37:10.294Z,86.334229
2023-04-22T03:38:19.965Z,86.437988
2023-04-22T03:39:28.620Z,86.541748
2023-04-22T03:40:37.287Z,86.437988
2023-04-22T03:41:45.933Z,86.437988
2023-04-22T03:42:54.627Z,86.132812
2023-04-22T03:44:04.295Z,86.029053
2023-04-22T03:45:13.949Z,86.132812
2023-04-22T03:46:21.662Z,86.334229
2023-04-22T03:47:29.239Z,86.334229
2023-04-22T03:48:38.897Z,86.334229
2023-04-22T03:49:48.579Z,86.437988
2023-04-22T03:50:56.205Z,86.236572
2023-04-22T03:52:05.846Z,86.236572
2023-04-22T03:53:15.492Z,86.132812
2023-04-22T03:54:25.162Z,86.029053
2023-04-22T03:55:34.898Z,86.029053
2023-04-22T03:56:42.579Z,85.821533
2023-04-22T03:57:52.223Z,85.925293
2023-04-22T03:59:00.923Z,85.821533
2023-04-22T04:00:09.585Z,85.681152
2023-04-22T04:01:19.252Z,85.620117
2023-04-22T04:02:27.986Z,85.473633
2023-04-22T04:03:37.725Z,85.272217
2023-04-22T04:04:46.589Z,85.272217
2023-04-22T04:05:54.012Z,84.960938
2023-04-22T04:07:02.587Z,84.857178
2023-04-22T04:08:11.283Z,85.064697
2023-04-22T04:09:19.937Z,87.792969
2023-04-22T04:10:29.625Z,86.871338
2023-04-22T04:11:39.279Z,86.053467
2023-04-22T04:12:48.939Z,86.053467
2023-04-22T04:13:57.607Z,85.272217
2023-04-22T04:15:07.282Z,85.473633
2023-04-22T04:16:16.965Z,85.375977
2023-04-22T04:17:25.652Z,85.681152
2023-04-22T04:18:34.234Z,85.681152
2023-04-22T04:19:43.969Z,87.115479
2023-04-22T04:20:53.605Z,86.663818
2023-04-22T04:22:03.257Z,86.975098
2023-04-22T04:23:12.923Z,85.742188
2023-04-22T04:24:21.710Z,85.437012
2023-04-22T04:25:31.370Z,85.168457
2023-04-22T04:26:41.041Z,85.577393
2023-04-22T04:27:49.653Z,85.784912
2023-04-22T04:28:58.320Z,85.986328
2023-04-22T04:30:08.023Z,86.090088
2023-04-22T04:31:17.696Z,86.090088
2023-04-22T04:32:25.370Z,86.663818
2023-04-22T04:33:33.964Z,85.949707
2023-04-22T04:34:43.713Z,85.437012
2023-04-22T04:35:52.275Z,85.949707
2023-04-22T04:37:00.916Z,85.845947
2023-04-22T04:38:09.600Z,85.540771
2023-04-22T04:39:18.253Z,85.333252
2023-04-22T04:40:27.972Z,85.028076
2023-04-22T04:41:36.608Z,85.333252
2023-04-22T04:42:45.289Z,85.028076
2023-04-22T04:43:54.906Z,85.784912
2023-04-22T04:45:03.564Z,85.888672
2023-04-22T04:46:13.204Z,86.706543
2023-04-22T04:47:21.875Z,86.602783
2023-04-22T04:48:31.516Z,86.401367
2023-04-22T04:49:41.323Z,85.784912
2023-04-22T04:50:49.860Z,85.784912
2023-04-22T04:51:56.500Z,85.986328
2023-04-22T04:53:07.156Z,85.473633
2023-04-22T04:54:16.803Z,85.375977
2023-04-22T04:55:27.601Z,85.205078
2023-04-22T04:56:37.265Z,85.412598
2023-04-22T04:57:45.919Z,85.308838
2023-04-22T04:58:55.597Z,85.308838
2023-04-22T05:00:04.258Z,85.412598
2023-04-22T05:01:11.933Z,85.821533
2023-04-22T05:02:21.735Z,85.516357
2023-04-22T05:03:31.386Z,85.272217
2023-04-22T05:04:39.924Z,84.960938
2023-04-22T05:05:47.560Z,85.003662
2023-04-22T05:06:57.281Z,85.205078
2023-04-22T05:08:06.969Z,85.168457
2023-04-22T05:09:15.640Z,85.168457
2023-04-22T05:10:23.332Z,84.924316
2023-04-22T05:11:32.984Z,84.924316
2023-04-22T05:12:41.638Z,84.411621
2023-04-22T05:13:49.318Z,84.100342
2023-04-22T05:14:58.986Z,84.100342
2023-04-22T05:16:07.798Z,83.898926
2023-04-22T05:17:16.370Z,83.898926
2023-04-22T05:18:24.016Z,83.758545
2023-04-22T05:19:32.678Z,83.758545
2023-04-22T05:20:42.373Z,83.343506
2023-04-22T05:21:52.001Z,83.343506
2023-04-22T05:23:00.680Z,83.14209
2023-04-22T05:24:10.417Z,83.14209
2023-04-22T05:25:19.026Z,83.099365
2023-04-22T05:26:28.697Z,82.794189
2023-04-22T05:27:37.358Z,82.489014
2023-04-22T05:28:45.022Z,82.525635
2023-04-22T05:29:54.691Z,82.629395
2023-04-22T05:31:04.550Z,82.69043
2023-04-22T05:32:13.232Z,82.281494
2023-04-22T05:33:21.910Z,82.080078
2023-04-22T05:34:30.559Z,81.976318
2023-04-22T05:35:40.244Z,82.037354
2023-04-22T05:36:47.915Z,81.732178
2023-04-22T05:37:56.561Z,81.323242
2023-04-22T05:39:05.219Z,81.665039
2023-04-22T05:40:13.873Z,81.628418
2023-04-22T05:41:23.531Z,81.286621
2023-04-22T05:42:33.195Z,81.286621
2023-04-22T05:43:42.851Z,80.773926
2023-04-22T05:44:50.521Z,80.462646
2023-04-22T05:46:00.314Z,80.975342
2023-04-22T05:47:08.910Z,80.053711
2023-04-22T05:48:17.488Z,80.224609
2023-04-22T05:49:26.148Z,80.01709
2023-04-22T05:50:35.826Z,80.187988
2023-04-22T05:51:45.473Z,79.675293
2023-04-22T05:52:53.125Z,79.058838
2023-04-22T05:54:00.775Z,78.961182
2023-04-22T05:55:10.471Z,79.229736
2023-04-22T05:56:19.251Z,78.515625
2023-04-22T05:57:27.945Z,78.308105
2023-04-22T05:58:37.590Z,78.375244
2023-04-22T05:59:46.266Z,77.661133
2023-04-22T06:00:55.977Z,77.453613
2023-04-22T06:02:05.805Z,77.416992
2023-04-22T06:03:14.794Z,77.416992
2023-04-22T06:04:24.568Z,76.702881
2023-04-22T06:05:32.931Z,76.293945
2023-04-22T06:06:41.520Z,76.190186
2023-04-22T06:07:50.156Z,75.952148
2023-04-22T06:08:58.827Z,76.257324
2023-04-22T06:10:08.500Z,75.817871
2023-04-22T06:11:16.208Z,75.610352
2023-04-22T06:12:24.852Z,75.201416
2023-04-22T06:13:34.501Z,75.408936
2023-04-22T06:14:44.140Z,75.164795
2023-04-22T06:15:52.861Z,74.621582
2023-04-22T06:17:01.485Z,74.145508
2023-04-22T06:18:12.137Z,73.809814
2023-04-22T06:19:21.826Z,73.773193
2023-04-22T06:20:30.480Z,73.364258
2023-04-22T06:21:39.142Z,73.193359
2023-04-22T06:22:48.785Z,73.059082
2023-04-22T06:23:57.446Z,72.924805
2023-04-22T06:25:06.083Z,72.924805
2023-04-22T06:26:15.756Z,72.515869
2023-04-22T06:27:25.405Z,71.563721
2023-04-22T06:28:35.064Z,71.466064
2023-04-22T06:29:43.703Z,71.362305
2023-04-22T06:30:52.388Z,71.228027
2023-04-22T06:32:02.018Z,71.228027
2023-04-22T06:33:10.693Z,71.124268
2023-04-22T06:34:19.329Z,71.295166
2023-04-22T06:35:29.025Z,70.483398
2023-04-22T06:36:37.824Z,70.751953
2023-04-22T06:37:47.468Z,70.043945
2023-04-22T06:38:55.105Z,68.920898
2023-04-22T06:40:05.775Z,69.091797
2023-04-22T06:41:15.453Z,68.994141
2023-04-22T06:42:24.095Z,68.658447
2023-04-22T06:43:33.740Z,68.927002
2023-04-22T06:44:43.407Z,67.608643
2023-04-22T06:45:52.078Z,67.169189
2023-04-22T06:47:01.785Z,67.071533
2023-04-22T06:48:10.402Z,66.259766
2023-04-22T06:49:18.061Z,65.820312
2023-04-22T06:50:27.799Z,65.716553
2023-04-22T06:51:36.486Z,65.893555
2023-04-22T06:52:45.119Z,65.557861
2023-04-22T06:53:53.754Z,64.672852
2023-04-22T06:55:03.404Z,65.020752
2023-04-22T06:56:13.057Z,64.007568
2023-04-22T06:57:21.709Z,63.671875
2023-04-22T06:58:30.352Z,62.93335
2023-04-22T06:59:40.310Z,61.621094
2023-04-22T07:00:49.824Z,61.791992
2023-04-22T07:01:59.586Z,61.688232
2023-04-22T07:03:08.218Z,61.462402
2023-04-22T07:04:16.820Z,61.029053
2023-04-22T07:05:26.478Z,60.217285
2023-04-22T07:06:35.123Z,60.491943
2023-04-22T07:07:44.856Z,60.162354
2023-04-22T07:08:54.516Z,60.058594
2023-04-22T07:10:04.169Z,59.625244
2023-04-22T07:11:14.486Z,58.81958
2023-04-22T07:12:24.530Z,58.795166
2023-04-22T07:13:33.189Z,58.868408
2023-04-22T07:14:42.852Z,58.538818
2023-04-22T07:15:51.534Z,58.435059
2023-04-22T07:16:59.197Z,58.209229
2023-04-22T07:18:08.874Z,56.365967
2023-04-22T07:19:17.625Z,57.775879
2023-04-22T07:20:27.272Z,56.140137
2023-04-22T07:21:35.919Z,56.036377
2023-04-22T07:22:44.616Z,55.810547
2023-04-22T07:23:54.300Z,55.078125
2023-04-22T07:25:02.930Z,54.376221
2023-04-22T07:26:10.652Z,53.167725
2023-04-22T07:27:20.374Z,52.868652
2023-04-22T07:28:29.018Z,53.771973
2023-04-22T07:29:38.859Z,54.077148
2023-04-22T07:30:48.372Z,54.827881
2023-04-22T07:31:57.071Z,54.724121
2023-04-22T07:33:06.757Z,53.594971
2023-04-22T07:34:16.355Z,52.868652
2023-04-22T07:35:26.011Z,53.448486
2023-04-22T07:36:35.729Z,53.619385
2023-04-22T07:37:44.425Z,53.118896
2023-04-22T07:38:53.068Z,52.11792
2023-04-22T07:40:02.734Z,51.513672
2023-04-22T07:41:12.387Z,51.416016
2023-04-22T07:42:21.067Z,51.239014
2023-04-22T07:43:30.727Z,52.618408
2023-04-22T07:44:39.581Z,51.190186
2023-04-22T07:45:48.030Z,52.966309
2023-04-22T07:46:56.725Z,51.44043
2023-04-22T07:48:05.468Z,51.416016
2023-04-22T07:49:14.180Z,50.018311
2023-04-22T07:50:21.701Z,49.285889
2023-04-22T07:51:30.434Z,49.786377
2023-04-22T07:52:40.188Z,51.190186
2023-04-22T07:53:48.821Z,51.141357
2023-04-22T07:54:57.592Z,50.616455
2023-04-22T07:56:05.254Z,48.919678
2023-04-22T07:57:15.678Z,48.260498
2023-04-22T07:58:25.360Z,50.439453
2023-04-22T07:59:32.991Z,48.260498
2023-04-22T08:00:40.654Z,48.162842
2023-04-22T08:01:50.262Z,49.041748
2023-04-22T08:02:59.026Z,48.638916
2023-04-22T08:04:07.801Z,50.140381
2023-04-22T08:05:17.279Z,50.018311
2023-04-22T08:06:25.923Z,49.591064
2023-04-22T08:07:35.588Z,49.267578
2023-04-22T08:08:44.255Z,49.969482
2023-04-22T08:09:51.933Z,48.547363
2023-04-22T08:11:01.613Z,49.200439
2023-04-22T08:12:10.273Z,49.475098
2023-04-22T08:13:18.970Z,47.88208
2023-04-22T08:14:27.631Z,48.651123
2023-04-22T08:15:37.339Z,48.651123
2023-04-22T08:16:46.972Z,48.730469
2023-04-22T08:17:54.712Z,47.436523
2023-04-22T08:19:02.303Z,47.631836
2023-04-22T08:20:12.014Z,47.436523
2023-04-22T08:21:20.668Z,46.258545
2023-04-22T08:22:30.333Z,47.900391
2023-04-22T08:23:40.015Z,49.377441
2023-04-22T08:24:48.716Z,49.353027
2023-04-22T08:25:58.381Z,49.230957
2023-04-22T08:27:07.040Z,48.828125
2023-04-22T08:28:14.764Z,48.309326
2023-04-22T08:29:24.434Z,48.803711
2023-04-22T08:30:34.125Z,47.113037
2023-04-22T08:31:43.921Z,47.015381
2023-04-22T08:32:53.754Z,46.038818
2023-04-22T08:34:01.375Z,48.651123
2023-04-22T08:35:11.028Z,48.33374
2023-04-22T08:36:19.720Z,47.808838
2023-04-22T08:37:27.379Z,48.083496
2023-04-22T08:38:37.061Z,47.766113
2023-04-22T08:39:46.817Z,47.662354
2023-04-22T08:40:56.457Z,45.751953
2023-04-22T08:42:05.100Z,44.262695
2023-04-22T08:43:15.625Z,43.707275
2023-04-22T08:44:25.325Z,44.897461
2023-04-22T08:45:35.009Z,46.472168
2023-04-22T08:46:43.683Z,45.97168
2023-04-22T08:47:52.386Z,45.550537
2023-04-22T08:49:00.985Z,46.624756
2023-04-22T08:50:10.663Z,46.325684
2023-04-22T08:51:20.334Z,46.899414
2023-04-22T08:52:29.014Z,46.185303
2023-04-22T08:53:37.743Z,45.465088
2023-04-22T08:54:46.411Z,44.970703
2023-04-22T08:55:55.065Z,42.987061
2023-04-22T08:57:04.718Z,44.573975
2023-04-22T08:58:13.385Z,44.873047
2023-04-22T08:59:23.052Z,44.549561
2023-04-22T09:00:31.720Z,44.53125
2023-04-22T09:01:40.377Z,44.232178
2023-04-22T09:02:50.122Z,44.036865
2023-04-22T09:03:57.777Z,43.713379
2023-04-22T09:05:06.358Z,43.121338
2023-04-22T09:06:15.998Z,44.110107
2023-04-22T09:07:24.675Z,44.091797
2023-04-22T09:08:33.376Z,43.890381
2023-04-22T09:09:43.046Z,43.914795
2023-04-22T09:10:51.786Z,42.547607
2023-04-22T09:12:01.503Z,44.750977
2023-04-22T09:13:11.187Z,45.739746
2023-04-22T09:14:19.858Z,43.933105
2023-04-22T09:15:29.527Z,43.457031
2023-04-22T09:16:38.219Z,43.737793
2023-04-22T09:17:47.879Z,44.433594
2023-04-22T09:18:56.539Z,44.110107
2023-04-22T09:20:05.187Z,43.341064
2023-04-22T09:21:14.836Z,43.817139
2023-04-22T09:22:22.490Z,44.903564
2023-04-22T09:23:31.172Z,44.110107
2023-04-22T09:24:40.897Z,44.091797
2023-04-22T09:25:49.556Z,43.969727
2023-04-22T09:26:57.212Z,43.353271
2023-04-22T09:28:05.852Z,43.829346
2023-04-22T09:29:15.550Z,43.237305
2023-04-22T09:30:24.212Z,44.104004
2023-04-22T09:31:32.876Z,42.816162
2023-04-22T09:32:41.581Z,43.609619
2023-04-22T09:33:51.212Z,43.310547
2023-04-22T09:34:59.865Z,42.425537
2023-04-22T09:36:08.530Z,42.266846
2023-04-22T09:37:18.165Z,41.931152
2023-04-22T09:38:25.814Z,43.243408
2023-04-22T09:39:34.554Z,44.433594
2023-04-22T09:40:44.253Z,42.547607
2023-04-22T09:41:53.880Z,42.86499
2023-04-22T09:43:03.572Z,43.280029
2023-04-22T09:44:12.299Z,44.0979
2023-04-22T09:45:20.962Z,45.20874
2023-04-22T09:46:30.631Z,44.989014
2023-04-22T09:47:38.303Z,45.166016
2023-04-22T09:48:47.957Z,44.152832
2023-04-22T09:49:57.633Z,44.451904
2023-04-22T09:51:06.274Z,43.835449
2023-04-22T09:52:13.931Z,43.493652
2023-04-22T09:53:22.609Z,42.285156
2023-04-22T09:54:32.307Z,43.280029
2023-04-22T09:55:41.978Z,42.010498
2023-04-22T09:56:49.633Z,42.010498
2023-04-22T09:57:59.280Z,41.790771
2023-04-22T09:59:08.977Z,42.285156
2023-04-22T10:00:17.727Z,41.674805
2023-04-22T10:01:26.367Z,40.563965
2023-04-22T10:02:36.041Z,41.851807
2023-04-22T10:03:45.725Z,40.979004
2023-04-22T10:04:55.407Z,41.156006
2023-04-22T10:06:04.063Z,40.466309
2023-04-22T10:07:11.712Z,40.368652
2023-04-22T10:08:21.450Z,40.863037
2023-04-22T10:09:31.120Z,39.593506
2023-04-22T10:10:39.826Z,40.802002
2023-04-22T10:11:48.519Z,41.967773
2023-04-22T10:12:57.209Z,40.167236
2023-04-22T10:14:06.877Z,40.942383
2023-04-22T10:15:15.644Z,39.459229
2023-04-22T10:16:25.375Z,39.953613
2023-04-22T10:17:35.038Z,40.246582
2023-04-22T10:18:43.649Z,39.733887
2023-04-22T10:19:52.378Z,38.922119
2023-04-22T10:21:01.168Z,39.001465
2023-04-22T10:22:09.771Z,38.708496
2023-04-22T10:23:18.451Z,39.202881
2023-04-22T10:24:27.110Z,39.599609
2023-04-22T10:25:35.764Z,39.202881
2023-04-22T10:26:45.414Z,38.330078
2023-04-22T10:27:54.074Z,39.813232
2023-04-22T10:29:03.820Z,39.105225
2023-04-22T10:30:13.487Z,39.477539
2023-04-22T10:31:22.181Z,39.678955
2023-04-22T10:32:31.838Z,39.758301
2023-04-22T10:33:41.496Z,37.683105
2023-04-22T10:34:49.195Z,37.719727
2023-04-22T10:35:58.847Z,37.817383
2023-04-22T10:37:07.586Z,36.865234
2023-04-22T10:38:17.213Z,38.48877
2023-04-22T10:39:25.969Z,39.752197
2023-04-22T10:40:35.631Z,40.008545
2023-04-22T10:41:45.311Z,39.025879
2023-04-22T10:42:52.962Z,37.322998
2023-04-22T10:44:01.614Z,38.409424
2023-04-22T10:45:11.303Z,36.633301
2023-04-22T10:46:21.055Z,36.846924
2023-04-22T10:47:29.688Z,37.243652
2023-04-22T10:48:39.350Z,38.330078
2023-04-22T10:49:48.006Z,37.408447
2023-04-22T10:50:57.687Z,36.224365
2023-04-22T10:52:07.369Z,35.614014
2023-04-22T10:53:16.014Z,35.412598
2023-04-22T10:54:25.969Z,36.206055
2023-04-22T10:55:36.363Z,35.906982
2023-04-22T10:56:51.785Z,35.516357
2023-04-22T10:57:56.672Z,35.614014
2023-04-22T10:59:06.365Z,36.322021
2023-04-22T11:00:16.065Z,36.59668
2023-04-22T11:01:24.712Z,36.004639
2023-04-22T11:02:34.464Z,34.545898
2023-04-22T11:03:44.140Z,35.253906
2023-04-22T11:04:53.758Z,35.321045
2023-04-22T11:06:02.435Z,35.717773
2023-04-22T11:07:10.093Z,36.407471
2023-04-22T11:08:18.795Z,38.269043
2023-04-22T11:09:28.492Z,37.04834
2023-04-22T11:10:38.291Z,36.224365
2023-04-22T11:11:47.943Z,36.004639
2023-04-22T11:12:57.614Z,34.906006
2023-04-22T11:14:07.350Z,34.7229
2023-04-22T11:15:17.009Z,36.2854
2023-04-22T11:16:25.709Z,37.054443
2023-04-22T11:17:34.354Z,34.967041
2023-04-22T11:18:44.036Z,35.247803
2023-04-22T11:19:52.668Z,34.47876
2023-04-22T11:21:01.350Z,35.36377
2023-04-22T11:22:11.036Z,36.053467
2023-04-22T11:23:19.847Z,34.857178
2023-04-22T11:24:29.585Z,33.526611
2023-04-22T11:25:39.247Z,34.710693
2023-04-22T11:26:47.900Z,36.077881
2023-04-22T11:27:57.597Z,36.651611
2023-04-22T11:29:07.277Z,37.780762
2023-04-22T11:30:16.110Z,36.859131
2023-04-22T11:31:25.722Z,35.540771
2023-04-22T11:32:33.409Z,36.218262
2023-04-22T11:33:44.068Z,34.429932
2023-04-22T11:34:54.717Z,35.5896
2023-04-22T11:36:03.420Z,33.703613
2023-04-22T11:37:11.064Z,34.472656
2023-04-22T11:38:20.708Z,32.873535
2023-04-22T11:39:29.370Z,32.659912
2023-04-22T11:40:40.735Z,33.544922
2023-04-22T11:41:49.664Z,32.757568
2023-04-22T11:42:58.312Z,33.02002
2023-04-22T11:44:07.999Z,32.269287
2023-04-22T11:45:14.662Z,32.678223
2023-04-22T11:46:24.377Z,32.971191
2023-04-22T11:47:33.989Z,32.37915
2023-04-22T11:48:42.654Z,32.37915
2023-04-22T11:49:51.348Z,32.37915
2023-04-22T11:51:00.234Z,32.788086
2023-04-22T11:52:07.927Z,32.904053
2023-04-22T11:53:17.689Z,32.495117
2023-04-22T11:54:26.431Z,33.459473
2023-04-22T11:55:35.216Z,31.512451
2023-04-22T11:56:45.937Z,33.068848
2023-04-22T11:57:54.614Z,33.148193
2023-04-22T11:59:03.273Z,33.03833
2023-04-22T12:00:12.003Z,32.15332
2023-04-22T12:01:21.758Z,31.970215
2023-04-22T12:02:31.607Z,32.641602
2023-04-22T12:03:39.299Z,32.220459
2023-04-22T12:04:47.896Z,30.975342
2023-04-22T12:05:57.612Z,32.250977
2023-04-22T12:07:07.285Z,32.836914
2023-04-22T12:08:15.936Z,31.939697
2023-04-22T12:09:23.635Z,31.323242
2023-04-22T12:10:32.295Z,31.713867
2023-04-22T12:11:42.015Z,31.536865
2023-04-22T12:12:49.706Z,32.006836
2023-04-22T12:13:58.375Z,30.932617
2023-04-22T12:15:09.033Z,31.408691
2023-04-22T12:16:18.705Z,31.341553
2023-04-22T12:17:27.427Z,32.025146
2023-04-22T12:18:37.051Z,31.829834
2023-04-22T12:19:44.729Z,31.518555
2023-04-22T12:20:54.447Z,30.541992
2023-04-22T12:22:02.176Z,30.230713
2023-04-22T12:23:09.838Z,30.0354
2023-04-22T12:24:19.522Z,31.04248
2023-04-22T12:25:29.184Z,31.35376
2023-04-22T12:26:37.925Z,32.092285
2023-04-22T12:27:47.602Z,31.378174
2023-04-22T12:28:56.405Z,30.871582
2023-04-22T12:30:06.094Z,29.962158
2023-04-22T12:31:15.839Z,30.480957
2023-04-22T12:32:25.467Z,30.395508
2023-04-22T12:33:35.142Z,30.609131
2023-04-22T12:34:43.810Z,30.316162
2023-04-22T12:35:53.505Z,30.621338
2023-04-22T12:37:03.223Z,30.541992
2023-04-22T12:38:11.865Z,30.871582
2023-04-22T12:39:21.563Z,32.165527
2023-04-22T12:40:31.229Z,32.37915
2023-04-22T12:41:38.976Z,32.543945
2023-04-22T12:42:48.648Z,31.530762
2023-04-22T12:43:58.390Z,32.299805
2023-04-22T12:45:08.108Z,31.80542
2023-04-22T12:46:17.798Z,33.068848
2023-04-22T12:47:27.463Z,32.202148
2023-04-22T12:48:37.152Z,32.299805
2023-04-22T12:49:46.450Z,32.104492
2023-04-22T12:50:53.463Z,31.988525
2023-04-22T12:52:03.208Z,31.402588
2023-04-22T12:53:12.906Z,31.47583
2023-04-22T12:54:22.609Z,32.836914
2023-04-22T12:55:31.318Z,33.673096
2023-04-22T12:56:39.976Z,33.331299
2023-04-22T12:57:49.653Z,30.865479
2023-04-22T12:58:57.291Z,30.096436
2023-04-22T13:00:06.961Z,30.554199
2023-04-22T13:01:16.670Z,31.829834
2023-04-22T13:02:26.354Z,29.6875
2023-04-22T13:03:36.108Z,30.34668
2023-04-22T13:04:44.715Z,30.249023
2023-04-22T13:05:53.353Z,30.541992
2023-04-22T13:07:03.026Z,29.949951
2023-04-22T13:08:10.739Z,31.488037
2023-04-22T13:09:19.382Z,30.023193